首页
METAR-TAF:

METAR-TAF

机场 :

華雷斯城, 墨西哥

纬度: 31-38N, 经度: 106-26W, 海拔: 1171米

当前天气观测

该预报发布于1小时和3分钟前的22:40 UTC
风速8节,风向北转西北
温度 36°C
湿度 21%
气压 1016 hPa
能見度: 16.1公里
散云层高于4000英尺

METAR: MMCS 152240Z 33008KT 10SM SCT040 36/10 A3000 RMK 8/100 PRESFR

时间: 17:43 (23:43 UTC)

预报

该预报发布于6小时和53分钟前的16:50 UTC
预报有效从15日的 18点(UTC)到 16日的 18点(UTC)
风速10节,风向
能見度: 10公里
天空无云
成为
从 15日的 21点(UTC)到 15日的 22点(UTC)
风速15节,风向南转南东
从 16日的 0300点(UTC)
风速6节,风向南转南东
能見度: 10公里
天空无云
成为
从 16日的 17点(UTC)到 16日的 18点(UTC)
风速10节,风向南转南东

TAF: MMCS 151650Z 1518/1618 10010KT P6SM SKC BECMG 1521/1522 15015KT FM160300 15006KT P6SM SKC BECMG 1617/1618 15010KT

超过4000个机场的气象观测和天气预报(METAR&TAF报告)。

可查询的气象台以黄色和红色小点在地图上表示。

将鼠标移到小点上方,可查看气象台名称。

然后点击查看天气观测和预报。

如需切换地图:点击带黑十字的绿色按钮放大地图;点击带横线的绿色按钮缩小地图;或者点击绿色箭头查看邻近地区的地图。


METAR-TAF: